createdAt,value
2023-04-02T00:00:47.179Z,5.8
2023-04-02T00:01:40.107Z,5.8
2023-04-02T00:02:40.294Z,5.7
2023-04-02T00:03:40.085Z,5.7
2023-04-02T00:04:40.031Z,5.7
2023-04-02T00:05:40.037Z,5.7
2023-04-02T00:06:40.037Z,5.7
2023-04-02T00:07:40.047Z,5.7
2023-04-02T00:08:40.028Z,5.7
2023-04-02T00:09:40.037Z,5.7
2023-04-02T00:10:40.039Z,5.6
2023-04-02T00:11:40.032Z,5.6
2023-04-02T00:12:40.042Z,5.6
2023-04-02T00:13:40.029Z,5.5
2023-04-02T00:14:40.031Z,5.5
2023-04-02T00:15:40.033Z,5.5
2023-04-02T00:16:40.075Z,5.4
2023-04-02T00:17:40.053Z,5.4
2023-04-02T00:18:40.032Z,5.4
2023-04-02T00:19:41.206Z,5.4
2023-04-02T00:20:44.330Z,5.4
2023-04-02T00:21:46.729Z,5.3
2023-04-02T00:22:40.056Z,5.3
2023-04-02T00:23:40.205Z,5.3
2023-04-02T00:24:40.037Z,5.3
2023-04-02T00:25:40.034Z,5.2
2023-04-02T00:26:40.048Z,5.2
2023-04-02T00:27:40.059Z,5.2
2023-04-02T00:28:40.030Z,5.2
2023-04-02T00:29:40.030Z,5.2
2023-04-02T00:30:40.037Z,5.2
2023-04-02T00:31:40.063Z,5.1
2023-04-02T00:32:40.074Z,5.1
2023-04-02T00:33:40.036Z,5.1
2023-04-02T00:34:40.031Z,5.1
2023-04-02T00:35:40.032Z,5
2023-04-02T00:36:40.041Z,5
2023-04-02T00:37:40.047Z,5
2023-04-02T00:38:40.039Z,5
2023-04-02T00:39:40.049Z,5
2023-04-02T00:40:41.273Z,5
2023-04-02T00:41:44.464Z,5
2023-04-02T00:42:47.376Z,4.9
2023-04-02T00:43:40.051Z,4.9
2023-04-02T00:44:40.036Z,4.9
2023-04-02T00:45:40.050Z,4.9
2023-04-02T00:46:40.037Z,4.9
2023-04-02T00:47:40.115Z,4.9
2023-04-02T00:48:40.038Z,4.9
2023-04-02T00:49:40.045Z,4.9
2023-04-02T00:50:40.051Z,4.9
2023-04-02T00:51:40.032Z,4.8
2023-04-02T00:52:40.033Z,4.8
2023-04-02T00:53:40.042Z,4.8
2023-04-02T00:54:40.036Z,4.8
2023-04-02T00:55:40.052Z,4.8
2023-04-02T00:56:40.036Z,4.8
2023-04-02T00:57:40.033Z,4.8
2023-04-02T00:58:40.031Z,4.8
2023-04-02T00:59:40.359Z,4.8
2023-04-02T01:00:40.368Z,4.8
2023-04-02T01:01:41.517Z,4.8
2023-04-02T01:02:44.702Z,4.8
2023-04-02T01:03:47.577Z,4.8
2023-04-02T01:04:40.032Z,4.8
2023-04-02T01:05:40.037Z,4.8
2023-04-02T01:06:40.087Z,4.8
2023-04-02T01:07:40.031Z,4.8
2023-04-02T01:08:40.030Z,4.8
2023-04-02T01:09:40.031Z,4.8
2023-04-02T01:10:40.026Z,4.8
2023-04-02T01:11:40.039Z,4.8
2023-04-02T01:12:40.033Z,4.8
2023-04-02T01:13:40.037Z,4.8
2023-04-02T01:14:40.046Z,4.8
2023-04-02T01:15:40.070Z,4.7
2023-04-02T01:16:40.026Z,4.7
2023-04-02T01:17:40.064Z,4.7
2023-04-02T01:18:40.034Z,4.7
2023-04-02T01:19:40.039Z,4.7
2023-04-02T01:20:40.032Z,4.7
2023-04-02T01:21:40.025Z,4.7
2023-04-02T01:22:41.601Z,4.7
2023-04-02T01:23:44.910Z,4.7
2023-04-02T01:24:47.062Z,4.6
2023-04-02T01:25:40.027Z,4.6
2023-04-02T01:26:40.034Z,4.6
2023-04-02T01:27:45.421Z,4.6
2023-04-02T01:28:40.026Z,4.6
2023-04-02T01:29:40.039Z,4.6
2023-04-02T01:30:40.055Z,4.6
2023-04-02T01:31:40.104Z,4.6
2023-04-02T01:32:40.031Z,4.5
2023-04-02T01:33:40.044Z,4.5
2023-04-02T01:35:40.052Z,4.5
2023-04-02T01:36:40.025Z,4.5
2023-04-02T01:37:40.039Z,4.5
2023-04-02T01:38:40.030Z,4.4
2023-04-02T01:39:40.026Z,4.4
2023-04-02T01:40:40.182Z,4.4
2023-04-02T01:41:40.020Z,4.4
2023-04-02T01:42:40.034Z,4.4
2023-04-02T01:43:40.021Z,4.4
2023-04-02T01:44:41.844Z,4.4
2023-04-02T01:45:44.984Z,4.4
2023-04-02T01:46:40.037Z,4.4
2023-04-02T01:47:40.078Z,4.4
2023-04-02T01:48:40.047Z,4.4
2023-04-02T01:49:40.023Z,4.4
2023-04-02T01:50:40.037Z,4.4
2023-04-02T01:51:40.031Z,4.4
2023-04-02T01:52:40.021Z,4.4
2023-04-02T01:53:40.042Z,4.4
2023-04-02T01:54:40.022Z,4.4
2023-04-02T01:55:40.035Z,4.4
2023-04-02T01:56:40.024Z,4.3
2023-04-02T01:57:40.022Z,4.3
2023-04-02T01:58:40.042Z,4.3
2023-04-02T01:59:40.030Z,4.3
2023-04-02T02:00:40.040Z,4.3
2023-04-02T02:01:40.023Z,4.3
2023-04-02T02:02:40.151Z,4.3
2023-04-02T02:03:40.019Z,4.3
2023-04-02T02:04:40.036Z,4.3
2023-04-02T02:05:42.018Z,4.3
2023-04-02T02:06:44.982Z,4.3
2023-04-02T02:07:40.030Z,4.3
2023-04-02T02:08:40.035Z,4.3
2023-04-02T02:09:40.023Z,4.3
2023-04-02T02:10:40.024Z,4.2
2023-04-02T02:11:40.027Z,4.2
2023-04-02T02:12:40.051Z,4.2
2023-04-02T02:13:41.602Z,4.2
2023-04-02T02:14:40.030Z,4.2
2023-04-02T02:15:40.039Z,4.2
2023-04-02T02:16:40.049Z,4.2
2023-04-02T02:17:40.060Z,4.2
2023-04-02T02:18:40.021Z,4.2
2023-04-02T02:19:40.031Z,4.2
2023-04-02T02:20:40.033Z,4.2
2023-04-02T02:21:40.027Z,4.2
2023-04-02T02:22:40.071Z,4.2
2023-04-02T02:23:40.039Z,4.2
2023-04-02T02:24:40.034Z,4.2
2023-04-02T02:25:40.031Z,4.1
2023-04-02T02:26:42.054Z,4.1
2023-04-02T02:27:45.188Z,4.1
2023-04-02T02:28:40.037Z,4.1
2023-04-02T02:29:40.041Z,4.1
2023-04-02T02:30:40.032Z,4.1
2023-04-02T02:31:40.107Z,4.1
2023-04-02T02:32:40.076Z,4.1
2023-04-02T02:33:40.034Z,4.1
2023-04-02T02:34:40.031Z,4.1
2023-04-02T02:35:40.039Z,4
2023-04-02T02:36:40.036Z,4
2023-04-02T02:37:40.060Z,4
2023-04-02T02:38:40.037Z,4
2023-04-02T02:39:40.036Z,4
2023-04-02T02:40:40.035Z,4
2023-04-02T02:41:40.038Z,4
2023-04-02T02:42:40.057Z,4
2023-04-02T02:43:40.030Z,3.9
2023-04-02T02:44:40.042Z,3.9
2023-04-02T02:45:40.058Z,3.9
2023-04-02T02:46:40.027Z,3.9
2023-04-02T02:47:41.719Z,3.9
2023-04-02T02:48:45.184Z,3.9
2023-04-02T02:49:40.033Z,3.9
2023-04-02T02:50:40.033Z,3.9
2023-04-02T02:51:40.034Z,3.9
2023-04-02T02:52:40.048Z,3.9
2023-04-02T02:53:40.027Z,3.9
2023-04-02T02:54:40.043Z,3.9
2023-04-02T02:55:40.022Z,3.9
2023-04-02T02:56:40.036Z,3.9
2023-04-02T02:57:40.037Z,3.9
2023-04-02T02:58:40.028Z,3.9
2023-04-02T02:59:40.032Z,3.9
2023-04-02T03:00:40.032Z,3.9
2023-04-02T03:01:40.055Z,3.9
2023-04-02T03:02:40.140Z,3.9
2023-04-02T03:03:40.123Z,3.9
2023-04-02T03:04:40.027Z,3.9
2023-04-02T03:05:40.028Z,3.8
2023-04-02T03:06:40.025Z,3.8
2023-04-02T03:07:40.044Z,3.8
2023-04-02T03:08:41.700Z,3.8
2023-04-02T03:09:45.317Z,3.8
2023-04-02T03:10:40.026Z,3.8
2023-04-02T03:11:40.029Z,3.8
2023-04-02T03:12:40.039Z,3.8
2023-04-02T03:13:40.024Z,3.8
2023-04-02T03:14:40.040Z,3.8
2023-04-02T03:15:40.136Z,3.8
2023-04-02T03:16:40.018Z,3.8
2023-04-02T03:17:40.048Z,3.8
2023-04-02T03:18:40.029Z,3.8
2023-04-02T03:19:40.045Z,3.8
2023-04-02T03:20:40.023Z,3.8
2023-04-02T03:21:40.026Z,3.8
2023-04-02T03:22:40.029Z,3.8
2023-04-02T03:23:40.026Z,3.8
2023-04-02T03:24:40.046Z,3.8
2023-04-02T03:25:40.031Z,3.7
2023-04-02T03:26:40.038Z,3.7
2023-04-02T03:27:40.037Z,3.7
2023-04-02T03:28:40.028Z,3.7
2023-04-02T03:29:41.948Z,3.7
2023-04-02T03:30:45.483Z,3.7
2023-04-02T03:31:40.076Z,3.7
2023-04-02T03:32:40.111Z,3.7
2023-04-02T03:33:40.028Z,3.7
2023-04-02T03:34:40.027Z,3.7
2023-04-02T03:35:40.064Z,3.6
2023-04-02T03:36:40.232Z,3.6
2023-04-02T03:37:40.035Z,3.6
2023-04-02T03:38:40.025Z,3.6
2023-04-02T03:39:40.037Z,3.6
2023-04-02T03:40:40.035Z,3.6
2023-04-02T03:41:40.031Z,3.6
2023-04-02T03:42:40.027Z,3.6
2023-04-02T03:43:40.028Z,3.6
2023-04-02T03:44:40.032Z,3.6
2023-04-02T03:45:40.042Z,3.6
2023-04-02T03:46:40.057Z,3.6
2023-04-02T03:47:40.086Z,3.6
2023-04-02T03:48:40.032Z,3.6
2023-04-02T03:49:40.032Z,3.6
2023-04-02T03:50:42.482Z,3.6
2023-04-02T03:51:45.534Z,3.6
2023-04-02T03:52:40.032Z,3.6
2023-04-02T03:53:40.030Z,3.6
2023-04-02T03:54:40.047Z,3.6
2023-04-02T03:55:40.032Z,3.6
2023-04-02T03:56:40.203Z,3.6
2023-04-02T03:57:40.239Z,3.6
2023-04-02T03:58:40.029Z,3.5
2023-04-02T03:59:40.056Z,3.5
2023-04-02T04:00:40.046Z,3.5
2023-04-02T04:01:40.040Z,3.5
2023-04-02T04:02:40.044Z,3.5
2023-04-02T04:03:40.030Z,3.4
2023-04-02T04:04:40.039Z,3.5
2023-04-02T04:05:40.028Z,3.4
2023-04-02T04:06:40.030Z,3.4
2023-04-02T04:07:40.153Z,3.4
2023-04-02T04:08:40.031Z,3.4
2023-04-02T04:09:40.030Z,3.4
2023-04-02T04:10:40.037Z,3.4
2023-04-02T04:11:42.580Z,3.4
2023-04-02T04:12:45.629Z,3.4
2023-04-02T04:13:40.029Z,3.4
2023-04-02T04:14:40.033Z,3.4
2023-04-02T04:15:40.032Z,3.4
2023-04-02T04:16:40.052Z,3.3
2023-04-02T04:17:40.040Z,3.3
2023-04-02T04:18:40.030Z,3.3
2023-04-02T04:19:40.021Z,3.3
2023-04-02T04:20:40.020Z,3.3
2023-04-02T04:21:40.038Z,3.3
2023-04-02T04:22:40.029Z,3.2
2023-04-02T04:23:40.031Z,3.2
2023-04-02T04:24:40.042Z,3.2
2023-04-02T04:25:40.043Z,3.2
2023-04-02T04:26:40.029Z,3.2
2023-04-02T04:27:40.028Z,3.2
2023-04-02T04:28:40.190Z,3.2
2023-04-02T04:29:40.025Z,3.2
2023-04-02T04:30:40.027Z,3.2
2023-04-02T04:31:40.108Z,3.2
2023-04-02T04:32:42.889Z,3.2
2023-04-02T04:33:45.776Z,3.2
2023-04-02T04:34:40.030Z,3.2
2023-04-02T04:35:40.383Z,3.2
2023-04-02T04:36:40.055Z,3.2
2023-04-02T04:37:41.497Z,3.2
2023-04-02T04:38:40.036Z,3.2
2023-04-02T04:39:40.033Z,3.2
2023-04-02T04:40:40.029Z,3.2
2023-04-02T04:41:40.043Z,3.2
2023-04-02T04:42:40.040Z,3.1
2023-04-02T04:43:40.040Z,3.1
2023-04-02T04:44:40.028Z,3.1
2023-04-02T04:45:40.050Z,3.1
2023-04-02T04:46:40.038Z,3.1
2023-04-02T04:47:40.054Z,3.1
2023-04-02T04:48:40.030Z,3.1
2023-04-02T04:49:40.034Z,3.1
2023-04-02T04:50:40.022Z,3
2023-04-02T04:51:40.034Z,3
2023-04-02T04:52:40.029Z,3
2023-04-02T04:53:40.034Z,3
2023-04-02T04:54:42.989Z,3
2023-04-02T04:55:45.886Z,3
2023-04-02T04:56:40.033Z,3
2023-04-02T04:57:40.072Z,3
2023-04-02T04:58:40.036Z,3
2023-04-02T04:59:40.032Z,3
2023-04-02T05:00:40.032Z,3
2023-04-02T05:01:40.063Z,3
2023-04-02T05:02:40.079Z,3
2023-04-02T05:03:40.057Z,3
2023-04-02T05:04:40.064Z,3
2023-04-02T05:05:40.028Z,3
2023-04-02T05:06:40.025Z,3
2023-04-02T05:07:40.034Z,3
2023-04-02T05:08:40.029Z,3
2023-04-02T05:09:40.029Z,3
2023-04-02T05:10:40.032Z,3
2023-04-02T05:11:40.046Z,3
2023-04-02T05:12:40.032Z,3
2023-04-02T05:13:40.028Z,3
2023-04-02T05:14:40.039Z,3
2023-04-02T05:15:43.103Z,3
2023-04-02T05:16:45.976Z,3
2023-04-02T05:17:40.073Z,3
2023-04-02T05:18:40.035Z,3
2023-04-02T05:19:40.048Z,3
2023-04-02T05:20:40.024Z,3
2023-04-02T05:21:40.031Z,3
2023-04-02T05:22:41.291Z,3
2023-04-02T05:23:40.026Z,3
2023-04-02T05:24:40.055Z,3
2023-04-02T05:25:40.029Z,3
2023-04-02T05:26:40.028Z,3
2023-04-02T05:27:40.030Z,3
2023-04-02T05:28:40.025Z,3
2023-04-02T05:29:40.048Z,3
2023-04-02T05:30:40.023Z,3
2023-04-02T05:31:40.067Z,3
2023-04-02T05:32:40.032Z,3
2023-04-02T05:33:40.024Z,3
2023-04-02T05:34:40.048Z,3
2023-04-02T05:35:40.071Z,2.9
2023-04-02T05:36:43.152Z,2.9
2023-04-02T05:37:46.047Z,2.9
2023-04-02T05:38:40.029Z,2.9
2023-04-02T05:39:40.047Z,2.9
2023-04-02T05:40:40.033Z,2.9
2023-04-02T05:41:40.047Z,2.9
2023-04-02T05:42:40.035Z,2.9
2023-04-02T05:43:40.025Z,2.9
2023-04-02T05:44:40.024Z,2.9
2023-04-02T05:45:40.035Z,2.9
2023-04-02T05:46:40.066Z,2.9
2023-04-02T05:47:40.077Z,2.9
2023-04-02T05:48:40.031Z,2.9
2023-04-02T05:49:40.042Z,2.9
2023-04-02T05:50:40.028Z,2.9
2023-04-02T05:51:40.043Z,2.9
2023-04-02T05:52:40.031Z,2.9
2023-04-02T05:53:40.045Z,2.9
2023-04-02T05:54:40.032Z,2.9
2023-04-02T05:55:40.034Z,2.9
2023-04-02T05:56:40.207Z,2.9
2023-04-02T05:57:49.686Z,2.9
2023-04-02T05:58:46.225Z,2.9
2023-04-02T05:59:40.026Z,2.9
2023-04-02T06:00:40.056Z,2.9
2023-04-02T06:01:40.046Z,2.9
2023-04-02T06:02:40.088Z,2.9
2023-04-02T06:03:40.083Z,2.9
2023-04-02T06:04:40.032Z,2.9
2023-04-02T06:05:40.035Z,2.9
2023-04-02T06:06:40.041Z,2.9
2023-04-02T06:07:40.032Z,2.9
2023-04-02T06:08:40.064Z,2.9
2023-04-02T06:09:40.032Z,2.9
2023-04-02T06:10:40.031Z,2.9
2023-04-02T06:11:40.021Z,2.9
2023-04-02T06:12:40.027Z,2.9
2023-04-02T06:13:40.026Z,2.9
2023-04-02T06:14:40.031Z,2.9
2023-04-02T06:15:40.030Z,2.9
2023-04-02T06:16:40.077Z,2.9
2023-04-02T06:17:40.335Z,2.9
2023-04-02T06:18:42.912Z,2.9
2023-04-02T06:19:45.771Z,2.9
2023-04-02T06:20:40.030Z,2.9
2023-04-02T06:21:40.031Z,2.9
2023-04-02T06:22:40.050Z,2.9
2023-04-02T06:23:40.029Z,2.9
2023-04-02T06:24:40.038Z,2.9
2023-04-02T06:25:40.041Z,2.9
2023-04-02T06:26:40.034Z,2.9
2023-04-02T06:27:40.065Z,2.9
2023-04-02T06:28:40.034Z,2.9
2023-04-02T06:29:40.120Z,2.9
2023-04-02T06:30:40.059Z,3
2023-04-02T06:31:40.028Z,3
2023-04-02T06:32:40.069Z,3
2023-04-02T06:33:40.035Z,3
2023-04-02T06:34:40.054Z,3
2023-04-02T06:35:40.061Z,3
2023-04-02T06:36:40.032Z,3
2023-04-02T06:37:40.046Z,3
2023-04-02T06:38:40.273Z,3
2023-04-02T06:39:42.934Z,3
2023-04-02T06:40:45.800Z,3
2023-04-02T06:41:40.036Z,3.1
2023-04-02T06:42:40.072Z,3.1
2023-04-02T06:43:40.038Z,3.1
2023-04-02T06:44:40.035Z,3.1
2023-04-02T06:45:40.055Z,3.1
2023-04-02T06:46:40.036Z,3.1
2023-04-02T06:47:40.066Z,3.2
2023-04-02T06:48:40.030Z,3.2
2023-04-02T06:49:40.144Z,3.2
2023-04-02T06:50:40.037Z,3.2
2023-04-02T06:51:40.035Z,3.2
2023-04-02T06:52:40.060Z,3.2
2023-04-02T06:53:40.033Z,3.2
2023-04-02T06:54:40.047Z,3.2
2023-04-02T06:55:40.083Z,3.2
2023-04-02T06:56:40.035Z,3.2
2023-04-02T06:57:40.972Z,3.2
2023-04-02T06:58:40.031Z,3.2
2023-04-02T06:59:40.035Z,3.2
2023-04-02T07:00:43.138Z,3.2
2023-04-02T07:01:46.547Z,3.3
2023-04-02T07:02:40.089Z,3.3
2023-04-02T07:03:40.031Z,3.3
2023-04-02T07:04:40.060Z,3.3
2023-04-02T07:05:41.812Z,3.3
2023-04-02T07:06:40.026Z,3.3
2023-04-02T07:07:40.026Z,3.3
2023-04-02T07:08:40.025Z,3.3
2023-04-02T07:09:40.059Z,3.3
2023-04-02T07:10:40.029Z,3.3
2023-04-02T07:11:40.030Z,3.3
2023-04-02T07:12:40.021Z,3.3
2023-04-02T07:13:40.028Z,3.4
2023-04-02T07:14:40.047Z,3.4
2023-04-02T07:15:40.033Z,3.4
2023-04-02T07:16:40.034Z,3.4
2023-04-02T07:17:40.065Z,3.4
2023-04-02T07:18:40.037Z,3.4
2023-04-02T07:19:40.043Z,3.4
2023-04-02T07:20:40.485Z,3.4
2023-04-02T07:21:43.183Z,3.4
2023-04-02T07:22:46.643Z,3.4
2023-04-02T07:23:40.028Z,3.4
2023-04-02T07:24:40.050Z,3.4
2023-04-02T07:25:40.026Z,3.4
2023-04-02T07:26:40.021Z,3.4
2023-04-02T07:27:40.025Z,3.4
2023-04-02T07:28:40.026Z,3.4
2023-04-02T07:29:40.049Z,3.4
2023-04-02T07:30:40.026Z,3.4
2023-04-02T07:31:40.070Z,3.4
2023-04-02T07:32:40.057Z,3.4
2023-04-02T07:33:41.775Z,3.4
2023-04-02T07:34:40.042Z,3.5
2023-04-02T07:35:40.037Z,3.5
2023-04-02T07:36:40.028Z,3.5
2023-04-02T07:37:40.024Z,3.5
2023-04-02T07:38:40.034Z,3.5
2023-04-02T07:39:40.727Z,3.5
2023-04-02T07:40:40.033Z,3.5
2023-04-02T07:41:40.058Z,3.5
2023-04-02T07:42:43.112Z,3.5
2023-04-02T07:43:46.007Z,3.5
2023-04-02T07:44:40.020Z,3.5
2023-04-02T07:45:40.038Z,3.5
2023-04-02T07:46:40.034Z,3.5
2023-04-02T07:47:40.055Z,3.5
2023-04-02T07:48:40.026Z,3.5
2023-04-02T07:49:40.025Z,3.5
2023-04-02T07:50:40.024Z,3.5
2023-04-02T07:51:40.044Z,3.5
2023-04-02T07:52:40.505Z,3.5
2023-04-02T07:53:40.022Z,3.5
2023-04-02T07:54:40.026Z,3.5
2023-04-02T07:55:40.037Z,3.5
2023-04-02T07:56:40.058Z,3.5
2023-04-02T07:57:40.047Z,3.5
2023-04-02T07:58:40.034Z,3.6
2023-04-02T07:59:40.021Z,3.6
2023-04-02T08:00:40.032Z,3.6
2023-04-02T08:01:40.029Z,3.6
2023-04-02T08:02:40.045Z,3.6
2023-04-02T08:03:40.975Z,3.6
2023-04-02T08:04:43.957Z,3.6
2023-04-02T08:05:46.803Z,3.6
2023-04-02T08:06:40.025Z,3.6
2023-04-02T08:07:40.031Z,3.6
2023-04-02T08:08:40.030Z,3.6
2023-04-02T08:09:40.021Z,3.6
2023-04-02T08:10:40.034Z,3.6
2023-04-02T08:11:40.042Z,3.7
2023-04-02T08:13:40.040Z,3.7
2023-04-02T08:14:40.031Z,3.7
2023-04-02T08:15:40.035Z,3.7
2023-04-02T08:16:40.090Z,3.7
2023-04-02T08:17:40.076Z,3.7
2023-04-02T08:18:40.039Z,3.7
2023-04-02T08:19:47.982Z,3.7
2023-04-02T08:20:40.033Z,3.7
2023-04-02T08:21:40.026Z,3.7
2023-04-02T08:22:40.047Z,3.7
2023-04-02T08:23:40.037Z,3.7
2023-04-02T08:24:40.462Z,3.7
2023-04-02T08:25:44.025Z,3.7
2023-04-02T08:26:46.925Z,3.7
2023-04-02T08:27:40.035Z,3.7
2023-04-02T08:28:40.037Z,3.7
2023-04-02T08:29:40.030Z,3.7
2023-04-02T08:30:40.041Z,3.8
2023-04-02T08:31:40.035Z,3.8
2023-04-02T08:32:40.069Z,3.8
2023-04-02T08:33:40.032Z,3.8
2023-04-02T08:34:40.047Z,3.8
2023-04-02T08:35:40.351Z,3.8
2023-04-02T08:36:40.047Z,3.8
2023-04-02T08:37:40.032Z,3.8
2023-04-02T08:38:40.030Z,3.8
2023-04-02T08:39:40.056Z,3.9
2023-04-02T08:40:40.036Z,3.9
2023-04-02T08:41:40.051Z,3.9
2023-04-02T08:42:40.027Z,3.9
2023-04-02T08:43:40.029Z,3.9
2023-04-02T08:44:40.025Z,3.9
2023-04-02T08:45:41.188Z,3.9
2023-04-02T08:46:44.112Z,3.9
2023-04-02T08:47:47.079Z,3.9
2023-04-02T08:48:41.411Z,3.9
2023-04-02T08:49:40.029Z,3.9
2023-04-02T08:50:40.031Z,4
2023-04-02T08:51:40.031Z,4
2023-04-02T08:52:40.026Z,4
2023-04-02T08:53:40.032Z,4.1
2023-04-02T08:54:40.043Z,4.1
2023-04-02T08:55:40.031Z,4.1
2023-04-02T08:56:40.023Z,4.1
2023-04-02T08:57:40.044Z,4.2
2023-04-02T08:58:40.029Z,4.3
2023-04-02T08:59:40.050Z,4.3
2023-04-02T09:00:40.025Z,4.3
2023-04-02T09:01:40.033Z,4.4
2023-04-02T09:02:40.049Z,4.4
2023-04-02T09:03:40.028Z,4.4
2023-04-02T09:04:40.071Z,4.4
2023-04-02T09:05:40.027Z,4.4
2023-04-02T09:06:41.274Z,4.4
2023-04-02T09:07:44.197Z,4.4
2023-04-02T09:08:47.190Z,4.5
2023-04-02T09:09:40.027Z,4.5
2023-04-02T09:10:40.138Z,4.5
2023-04-02T09:11:40.022Z,4.5
2023-04-02T09:12:41.236Z,4.6
2023-04-02T09:13:40.029Z,4.6
2023-04-02T09:14:40.029Z,4.6
2023-04-02T09:15:40.041Z,4.6
2023-04-02T09:16:40.028Z,4.7
2023-04-02T09:17:51.000Z,4.7
2023-04-02T09:18:40.103Z,4.7
2023-04-02T09:19:40.033Z,4.7
2023-04-02T09:20:40.035Z,4.7
2023-04-02T09:21:40.030Z,4.7
2023-04-02T09:22:40.037Z,4.8
2023-04-02T09:23:40.030Z,4.8
2023-04-02T09:24:40.035Z,4.8
2023-04-02T09:25:40.029Z,4.8
2023-04-02T09:26:40.021Z,4.8
2023-04-02T09:27:41.355Z,4.8
2023-04-02T09:28:44.318Z,4.8
2023-04-02T09:29:47.247Z,4.8
2023-04-02T09:30:40.029Z,4.8
2023-04-02T09:31:40.255Z,4.8
2023-04-02T09:32:40.049Z,4.9
2023-04-02T09:33:40.122Z,4.9
2023-04-02T09:34:40.229Z,4.8
2023-04-02T09:35:40.319Z,4.8
2023-04-02T09:36:40.241Z,4.8
2023-04-02T09:37:40.192Z,4.8
2023-04-02T09:38:40.176Z,4.8
2023-04-02T09:39:40.333Z,4.8
2023-04-02T09:40:40.026Z,4.8
2023-04-02T09:41:40.051Z,4.9
2023-04-02T09:42:40.036Z,4.9
2023-04-02T09:43:40.034Z,4.9
2023-04-02T09:44:40.032Z,4.9
2023-04-02T09:45:40.028Z,4.9
2023-04-02T09:46:40.071Z,4.9
2023-04-02T09:47:41.706Z,4.9
2023-04-02T09:48:41.572Z,4.9
2023-04-02T09:49:44.453Z,4.9
2023-04-02T09:50:47.354Z,5
2023-04-02T09:51:40.056Z,4.9
2023-04-02T09:52:40.037Z,4.9
2023-04-02T09:53:41.922Z,4.9
2023-04-02T09:54:40.032Z,4.9
2023-04-02T09:55:40.029Z,4.9
2023-04-02T09:56:40.057Z,5
2023-04-02T09:57:40.037Z,5
2023-04-02T09:58:40.032Z,5
2023-04-02T09:59:40.033Z,5
2023-04-02T10:00:41.954Z,5.1
2023-04-02T10:01:40.106Z,5.1
2023-04-02T10:02:40.079Z,5.1
2023-04-02T10:03:40.036Z,5.1
2023-04-02T10:04:40.313Z,5
2023-04-02T10:05:41.314Z,5
2023-04-02T10:06:40.386Z,5
2023-04-02T10:07:40.235Z,5
2023-04-02T10:08:40.175Z,5
2023-04-02T10:09:41.643Z,5
2023-04-02T10:10:44.837Z,5
2023-04-02T10:11:47.514Z,5
2023-04-02T10:12:40.027Z,5
2023-04-02T10:13:40.026Z,5
2023-04-02T10:14:40.028Z,5.1
2023-04-02T10:15:40.027Z,5.1
2023-04-02T10:16:40.086Z,5.2
2023-04-02T10:17:40.048Z,5.2
2023-04-02T10:18:40.237Z,5.2
2023-04-02T10:19:40.117Z,5.2
2023-04-02T10:20:48.837Z,5.2
2023-04-02T10:21:40.030Z,5.2
2023-04-02T10:22:40.023Z,5.2
2023-04-02T10:23:40.230Z,5.3
2023-04-02T10:24:40.118Z,5.3
2023-04-02T10:25:40.127Z,5.3
2023-04-02T10:26:40.034Z,5.3
2023-04-02T10:27:40.030Z,5.3
2023-04-02T10:28:40.024Z,5.4
2023-04-02T10:29:40.044Z,5.4
2023-04-02T10:30:41.730Z,5.4
2023-04-02T10:31:44.566Z,5.4
2023-04-02T10:32:47.857Z,5.4
2023-04-02T10:33:40.033Z,5.4
2023-04-02T10:34:41.171Z,5.5
2023-04-02T10:35:40.060Z,5.5
2023-04-02T10:36:40.226Z,5.5
2023-04-02T10:37:40.032Z,5.5
2023-04-02T10:38:40.027Z,5.5
2023-04-02T10:39:40.147Z,5.5
2023-04-02T10:40:40.085Z,5.4
2023-04-02T10:41:40.041Z,5.4
2023-04-02T10:42:40.031Z,5.4
2023-04-02T10:43:40.031Z,5.4
2023-04-02T10:44:40.356Z,5.4
2023-04-02T10:45:40.186Z,5.4
2023-04-02T10:46:40.268Z,5.4
2023-04-02T10:47:40.300Z,5.5
2023-04-02T10:48:40.185Z,5.5
2023-04-02T10:49:40.189Z,5.5
2023-04-02T10:50:40.100Z,5.5
2023-04-02T10:51:40.097Z,5.5
2023-04-02T10:52:41.930Z,5.5
2023-04-02T10:53:44.880Z,5.5
2023-04-02T10:55:40.243Z,5.5
2023-04-02T10:56:48.221Z,5.5
2023-04-02T10:57:40.258Z,5.5
2023-04-02T10:58:40.135Z,5.5
2023-04-02T10:59:40.123Z,5.5
2023-04-02T11:00:40.104Z,5.5
2023-04-02T11:01:40.129Z,5.5
2023-04-02T11:02:40.264Z,5.6
2023-04-02T11:04:40.094Z,5.6
2023-04-02T11:05:40.119Z,5.6
2023-04-02T11:06:40.111Z,5.7
2023-04-02T11:07:40.132Z,5.7
2023-04-02T11:08:40.124Z,5.7
2023-04-02T11:09:40.136Z,5.7
2023-04-02T11:11:40.100Z,5.7
2023-04-02T11:12:41.989Z,5.7
2023-04-02T11:13:41.960Z,5.7
2023-04-02T11:14:45.011Z,5.7
2023-04-02T11:16:43.503Z,5.7
2023-04-02T11:17:40.262Z,5.7
2023-04-02T11:18:40.275Z,5.7
2023-04-02T11:19:40.140Z,5.7
2023-04-02T11:20:40.269Z,5.7
2023-04-02T11:21:47.924Z,5.7
2023-04-02T11:22:40.043Z,5.7
2023-04-02T11:23:40.032Z,5.8
2023-04-02T11:24:40.029Z,5.8
2023-04-02T11:25:40.042Z,5.9
2023-04-02T11:26:40.027Z,5.9
2023-04-02T11:27:40.053Z,6
2023-04-02T11:29:40.029Z,6.1
2023-04-02T11:30:40.026Z,6.1
2023-04-02T11:31:40.090Z,6.2
2023-04-02T11:32:40.074Z,6.2
2023-04-02T11:33:42.221Z,6.2
2023-04-02T11:34:41.558Z,6.2
2023-04-02T11:35:45.056Z,6.2
2023-04-02T11:36:40.035Z,6.3
2023-04-02T11:37:40.033Z,6.3
2023-04-02T11:38:40.036Z,6.3
2023-04-02T11:39:40.044Z,6.3
2023-04-02T11:40:40.051Z,6.3
2023-04-02T11:41:40.032Z,6.3
2023-04-02T11:42:40.030Z,6.3
2023-04-02T11:43:40.039Z,6.3
2023-04-02T11:44:40.025Z,6.2
2023-04-02T11:45:50.228Z,6.2
2023-04-02T11:46:40.101Z,6.3
2023-04-02T11:47:40.042Z,6.3
2023-04-02T11:48:40.032Z,6.3
2023-04-02T11:49:40.132Z,6.3
2023-04-02T11:50:40.030Z,6.3
2023-04-02T11:51:40.057Z,6.3
2023-04-02T11:53:40.029Z,6.3
2023-04-02T11:54:40.030Z,6.4
2023-04-02T11:55:42.026Z,6.4
2023-04-02T11:56:45.062Z,6.4
2023-04-02T11:57:40.063Z,6.5
2023-04-02T11:58:40.035Z,6.6
2023-04-02T11:59:40.028Z,6.6
2023-04-02T12:00:40.032Z,6.6
2023-04-02T12:01:40.083Z,6.6
2023-04-02T12:02:40.165Z,6.6
2023-04-02T12:03:40.026Z,6.6
2023-04-02T12:04:40.035Z,6.6
2023-04-02T12:05:40.132Z,6.7
2023-04-02T12:06:40.048Z,6.7
2023-04-02T12:07:40.028Z,6.7
2023-04-02T12:08:50.812Z,6.8
2023-04-02T12:09:40.031Z,6.8
2023-04-02T12:10:40.071Z,6.8
2023-04-02T12:11:40.056Z,6.8
2023-04-02T12:12:40.052Z,6.8
2023-04-02T12:13:40.037Z,6.8
2023-04-02T12:14:40.035Z,6.8
2023-04-02T12:15:40.048Z,6.8
2023-04-02T12:16:42.527Z,6.8
2023-04-02T12:17:45.289Z,6.8
2023-04-02T12:18:40.027Z,6.8
2023-04-02T12:19:40.031Z,6.9
2023-04-02T12:20:40.035Z,6.9
2023-04-02T12:21:40.033Z,7
2023-04-02T12:22:40.027Z,7.1
2023-04-02T12:23:40.093Z,7.1
2023-04-02T12:24:40.027Z,7.1
2023-04-02T12:25:40.038Z,7.2
2023-04-02T12:26:40.058Z,7.2
2023-04-02T12:27:40.029Z,7.3
2023-04-02T12:28:40.032Z,7.5
2023-04-02T12:29:40.027Z,7.5
2023-04-02T12:30:40.043Z,7.6
2023-04-02T12:31:40.041Z,7.6
2023-04-02T12:32:40.042Z,7.6
2023-04-02T12:33:40.040Z,7.6
2023-04-02T12:34:40.022Z,7.6
2023-04-02T12:35:40.035Z,7.7
2023-04-02T12:36:40.032Z,7.7
2023-04-02T12:37:42.368Z,7.7
2023-04-02T12:38:45.404Z,7.7
2023-04-02T12:39:40.019Z,7.8
2023-04-02T12:40:40.028Z,7.8
2023-04-02T12:41:40.026Z,7.8
2023-04-02T12:42:40.053Z,7.9
2023-04-02T12:43:40.082Z,7.9
2023-04-02T12:44:40.208Z,7.9
2023-04-02T12:45:40.267Z,7.9
2023-04-02T12:46:40.083Z,7.9
2023-04-02T12:47:40.053Z,7.9
2023-04-02T12:48:40.027Z,7.9
2023-04-02T12:49:40.029Z,8
2023-04-02T12:50:40.022Z,8
2023-04-02T12:51:40.026Z,8
2023-04-02T12:52:40.046Z,8
2023-04-02T12:53:40.029Z,8
2023-04-02T12:54:40.025Z,8
2023-04-02T12:55:40.030Z,7.9
2023-04-02T12:56:40.059Z,7.8
2023-04-02T12:57:40.344Z,7.8
2023-04-02T12:58:41.918Z,7.8
2023-04-02T12:59:45.117Z,7.8
2023-04-02T13:00:40.054Z,7.8
2023-04-02T13:01:40.048Z,7.8
2023-04-02T13:02:40.113Z,7.7
2023-04-02T13:03:40.049Z,7.7
2023-04-02T13:04:40.023Z,7.7
2023-04-02T13:05:40.207Z,7.7
2023-04-02T13:06:40.027Z,7.7
2023-04-02T13:07:40.043Z,7.7
2023-04-02T13:08:40.032Z,7.7
2023-04-02T13:09:40.086Z,7.7
2023-04-02T13:10:40.026Z,7.7
2023-04-02T13:11:40.031Z,7.7
2023-04-02T13:12:40.047Z,7.7
2023-04-02T13:13:40.026Z,7.7
2023-04-02T13:14:40.029Z,7.8
2023-04-02T13:15:40.105Z,7.8
2023-04-02T13:16:40.058Z,7.8
2023-04-02T13:17:40.065Z,7.9
2023-04-02T13:18:40.026Z,8
2023-04-02T13:19:42.061Z,8
2023-04-02T13:20:45.513Z,8
2023-04-02T13:21:40.024Z,8
2023-04-02T13:22:40.043Z,8
2023-04-02T13:23:40.029Z,8
2023-04-02T13:24:40.040Z,8
2023-04-02T13:25:40.027Z,8
2023-04-02T13:26:40.044Z,8
2023-04-02T13:27:40.034Z,8
2023-04-02T13:28:40.061Z,7.9
2023-04-02T13:29:40.035Z,7.9
2023-04-02T13:30:40.036Z,7.9
2023-04-02T13:31:40.042Z,7.9
2023-04-02T13:32:40.033Z,7.9
2023-04-02T13:33:40.045Z,8
2023-04-02T13:34:40.033Z,8.1
2023-04-02T13:35:40.037Z,8.2
2023-04-02T13:36:40.228Z,8.3
2023-04-02T13:37:40.048Z,8.4
2023-04-02T13:38:40.059Z,8.4
2023-04-02T13:39:40.026Z,8.5
2023-04-02T13:40:42.716Z,8.5
2023-04-02T13:41:45.067Z,8.5
2023-04-02T13:42:40.035Z,8.6
2023-04-02T13:43:40.051Z,8.6
2023-04-02T13:44:40.043Z,8.7
2023-04-02T13:45:40.085Z,8.7
2023-04-02T13:46:40.028Z,8.7
2023-04-02T13:47:41.208Z,8.7
2023-04-02T13:48:40.048Z,8.8
2023-04-02T13:49:40.106Z,8.8
2023-04-02T13:50:40.074Z,8.8
2023-04-02T13:51:40.042Z,8.7
2023-04-02T13:52:40.028Z,8.6
2023-04-02T13:53:40.031Z,8.6
2023-04-02T13:54:40.026Z,8.6
2023-04-02T13:55:40.030Z,8.5
2023-04-02T13:56:40.031Z,8.5
2023-04-02T13:57:40.122Z,8.4
2023-04-02T13:58:40.028Z,8.4
2023-04-02T13:59:40.028Z,8.4
2023-04-02T14:00:40.029Z,8.4
2023-04-02T14:01:42.756Z,8.4